createdAt,value
2022-10-30T00:01:05.934Z,20.23
2022-10-30T00:03:34.293Z,29.93
2022-10-30T00:06:05.980Z,20.10
2022-10-30T00:08:34.610Z,32.90
2022-10-30T00:11:08.000Z,23.93
2022-10-30T00:13:36.733Z,19.47
2022-10-30T00:16:08.470Z,18.37
2022-10-30T00:18:37.327Z,25.30
2022-10-30T00:21:10.312Z,23.70
2022-10-30T00:23:38.652Z,23.47
2022-10-30T00:26:08.375Z,26.37
2022-10-30T00:28:36.938Z,22.93
2022-10-30T00:31:06.962Z,23.97
2022-10-30T00:33:35.439Z,28.50
2022-10-30T00:36:03.947Z,20.93
2022-10-30T00:38:33.004Z,26.27
2022-10-30T00:41:01.462Z,21.87
2022-10-30T00:43:35.776Z,23.23
2022-10-30T00:46:10.549Z,27.93
2022-10-30T00:48:39.271Z,32.67
2022-10-30T00:51:12.342Z,24.60
2022-10-30T00:53:42.028Z,18.87
2022-10-30T00:56:12.901Z,24.27
2022-10-30T00:58:46.060Z,30.77
2022-10-30T01:01:21.251Z,22.87
2022-10-30T01:03:54.283Z,24.67
2022-10-30T01:06:22.991Z,30.27
2022-10-30T01:08:57.063Z,28.07
2022-10-30T01:11:28.327Z,28.87
2022-10-30T01:13:59.996Z,23.77
2022-10-30T01:16:59.589Z,28.80
2022-10-30T01:19:33.820Z,19.23
2022-10-30T01:22:15.343Z,28.87
2022-10-30T01:24:52.366Z,22.40
2022-10-30T01:27:35.569Z,23.90
2022-10-30T01:30:17.677Z,28.17
2022-10-30T01:33:02.657Z,27.63
2022-10-30T01:35:38.979Z,20.40
2022-10-30T01:38:13.855Z,25.43
2022-10-30T01:40:42.196Z,25.47
2022-10-30T01:43:10.635Z,22.97
2022-10-30T01:46:03.369Z,24.53
2022-10-30T01:49:01.265Z,27.83
2022-10-30T01:51:42.694Z,32.70
2022-10-30T01:54:21.163Z,19.53
2022-10-30T01:57:01.151Z,27.83
2022-10-30T01:59:35.581Z,24.17
2022-10-30T02:02:04.507Z,26.27
2022-10-30T02:04:34.321Z,18.17
2022-10-30T02:07:02.658Z,25.47
2022-10-30T02:09:31.320Z,24.63
2022-10-30T02:12:00.673Z,21.77
2022-10-30T02:14:32.751Z,20.17
2022-10-30T02:17:05.416Z,23.83
2022-10-30T02:19:35.455Z,25.07
2022-10-30T02:22:05.456Z,23.27
2022-10-30T02:24:33.882Z,28.00
2022-10-30T02:27:02.171Z,23.53
2022-10-30T02:29:30.443Z,18.43
2022-10-30T02:31:58.564Z,22.93
2022-10-30T02:34:26.823Z,25.13
2022-10-30T02:36:55.070Z,20.90
2022-10-30T02:39:24.776Z,19.53
2022-10-30T02:41:53.194Z,24.50
2022-10-30T02:44:21.734Z,21.33
2022-10-30T02:46:50.068Z,25.20
2022-10-30T02:49:18.347Z,19.87
2022-10-30T02:51:50.596Z,27.60
2022-10-30T02:54:18.902Z,26.20
2022-10-30T02:56:48.414Z,27.17
2022-10-30T02:59:16.524Z,27.33
2022-10-30T03:01:45.651Z,31.53
2022-10-30T03:04:14.040Z,24.63
2022-10-30T03:06:42.575Z,19.17
2022-10-30T03:09:10.864Z,24.30
2022-10-30T03:11:39.202Z,20.83
2022-10-30T03:14:09.125Z,21.67
2022-10-30T03:16:38.936Z,22.83
2022-10-30T03:19:07.336Z,27.77
2022-10-30T03:21:35.449Z,28.60
2022-10-30T03:24:03.694Z,26.93
2022-10-30T03:26:31.864Z,20.83
2022-10-30T03:28:59.923Z,21.77
2022-10-30T03:31:32.573Z,27.37
2022-10-30T03:34:00.791Z,22.50
2022-10-30T03:36:29.680Z,17.97
2022-10-30T03:38:58.064Z,20.47
2022-10-30T03:41:26.673Z,24.10
2022-10-30T03:43:55.376Z,24.00
2022-10-30T03:46:23.816Z,23.83
2022-10-30T03:48:53.824Z,28.00
2022-10-30T03:51:21.912Z,28.87
2022-10-30T03:53:50.198Z,24.77
2022-10-30T03:56:20.162Z,29.53
2022-10-30T03:58:48.239Z,21.73
2022-10-30T04:01:16.610Z,26.27
2022-10-30T04:03:45.014Z,24.03
2022-10-30T04:06:14.773Z,30.37
2022-10-30T04:08:43.105Z,25.67
2022-10-30T04:11:12.263Z,26.77
2022-10-30T04:13:40.475Z,26.57
2022-10-30T04:16:09.083Z,24.57
2022-10-30T04:18:37.219Z,22.90
2022-10-30T04:21:05.761Z,23.97
2022-10-30T04:23:35.455Z,17.90
2022-10-30T04:26:04.120Z,22.10
2022-10-30T04:28:32.237Z,22.47
2022-10-30T04:31:00.588Z,22.83
2022-10-30T04:33:28.844Z,29.17
2022-10-30T04:35:57.204Z,24.53
2022-10-30T04:38:25.395Z,26.10
2022-10-30T04:40:55.035Z,18.60
2022-10-30T04:43:23.344Z,22.03
2022-10-30T04:45:51.764Z,23.43
2022-10-30T04:48:20.306Z,23.37
2022-10-30T04:50:48.381Z,21.63
2022-10-30T04:53:18.002Z,19.23
2022-10-30T04:55:46.970Z,28.07
2022-10-30T04:58:16.465Z,21.93
2022-10-30T05:00:44.892Z,27.60
2022-10-30T05:03:19.747Z,20.60
2022-10-30T05:05:49.132Z,26.20
2022-10-30T05:08:18.160Z,21.73
2022-10-30T05:10:46.290Z,29.47
2022-10-30T05:13:14.609Z,24.90
2022-10-30T05:15:44.263Z,24.60
2022-10-30T05:18:12.807Z,26.83
2022-10-30T05:20:44.036Z,23.10
2022-10-30T05:23:12.509Z,26.77
2022-10-30T05:25:41.027Z,32.20
2022-10-30T05:28:09.401Z,22.93
2022-10-30T05:30:37.922Z,30.07
2022-10-30T05:33:11.161Z,28.97
2022-10-30T05:35:40.458Z,26.73
2022-10-30T05:38:09.146Z,19.53
2022-10-30T05:40:37.681Z,29.63
2022-10-30T05:43:06.840Z,27.40
2022-10-30T05:45:35.014Z,23.03
2022-10-30T05:48:05.194Z,22.60
2022-10-30T05:50:35.804Z,33.10
2022-10-30T05:53:05.915Z,26.70
2022-10-30T05:55:34.813Z,29.07
2022-10-30T05:58:05.585Z,26.73
2022-10-30T06:00:35.579Z,32.67
2022-10-30T06:03:08.433Z,29.77
2022-10-30T06:05:39.058Z,29.17
2022-10-30T06:08:09.197Z,26.50
2022-10-30T06:10:37.994Z,30.50
2022-10-30T06:13:08.992Z,33.10
2022-10-30T06:15:37.283Z,36.60
2022-10-30T06:18:06.369Z,28.50
2022-10-30T06:20:34.864Z,27.73
2022-10-30T06:23:07.296Z,26.47
2022-10-30T06:25:41.035Z,30.77
2022-10-30T06:28:10.605Z,37.33
2022-10-30T06:30:39.178Z,26.27
2022-10-30T06:33:07.433Z,28.07
2022-10-30T06:35:36.034Z,29.77
2022-10-30T06:38:06.195Z,26.77
2022-10-30T06:40:34.816Z,23.77
2022-10-30T06:43:03.228Z,28.90
2022-10-30T06:45:31.727Z,28.73
2022-10-30T06:48:02.023Z,25.80
2022-10-30T06:50:30.733Z,20.60
2022-10-30T06:52:59.002Z,27.07
2022-10-30T06:55:28.608Z,32.30
2022-10-30T06:57:58.089Z,27.53
2022-10-30T07:00:26.674Z,33.63
2022-10-30T07:02:59.567Z,33.17
2022-10-30T07:05:28.760Z,25.10
2022-10-30T07:07:58.475Z,26.10
2022-10-30T07:10:28.156Z,18.87
2022-10-30T07:12:59.044Z,24.00
2022-10-30T07:15:28.048Z,21.70
2022-10-30T07:17:58.265Z,32.50
2022-10-30T07:20:29.804Z,22.80
2022-10-30T07:22:58.363Z,23.97
2022-10-30T07:25:28.526Z,22.57
2022-10-30T07:27:58.422Z,18.00
2022-10-30T07:30:28.514Z,24.30
2022-10-30T07:33:02.443Z,22.40
2022-10-30T07:35:32.073Z,20.90
2022-10-30T07:38:04.733Z,23.27
2022-10-30T07:40:35.301Z,19.13
2022-10-30T07:43:05.615Z,18.93
2022-10-30T07:45:34.572Z,19.20
2022-10-30T07:48:03.954Z,21.50
2022-10-30T07:50:32.567Z,22.30
2022-10-30T07:53:00.870Z,32.20
2022-10-30T07:55:29.259Z,24.27
2022-10-30T07:57:59.113Z,22.83
2022-10-30T08:00:27.973Z,21.80
2022-10-30T08:02:58.645Z,21.33
2022-10-30T08:05:30.102Z,26.63
2022-10-30T08:07:59.893Z,19.00
2022-10-30T08:10:29.756Z,20.67
2022-10-30T08:13:00.117Z,24.30
2022-10-30T08:15:28.521Z,25.27
2022-10-30T08:17:57.251Z,17.73
2022-10-30T08:20:26.618Z,17.33
2022-10-30T08:22:56.828Z,18.20
2022-10-30T08:25:27.950Z,25.07
2022-10-30T08:27:59.938Z,18.87
2022-10-30T08:30:30.904Z,24.03
2022-10-30T08:33:00.407Z,22.20
2022-10-30T08:35:29.815Z,24.07
2022-10-30T08:37:59.328Z,19.17
2022-10-30T08:40:28.763Z,21.13
2022-10-30T08:43:00.069Z,16.03
2022-10-30T08:45:31.181Z,26.27
2022-10-30T08:48:00.894Z,22.60
2022-10-30T08:50:29.658Z,26.83
2022-10-30T08:52:58.142Z,22.30
2022-10-30T08:55:26.676Z,26.20
2022-10-30T08:57:54.906Z,19.97
2022-10-30T09:00:24.828Z,20.13
2022-10-30T09:02:54.016Z,27.27
2022-10-30T09:05:22.800Z,21.47
2022-10-30T09:07:57.635Z,25.90
2022-10-30T09:10:26.196Z,17.10
2022-10-30T09:12:58.216Z,17.97
2022-10-30T09:15:28.512Z,17.77
2022-10-30T09:17:58.255Z,19.90
2022-10-30T09:20:27.593Z,46.30
2022-10-30T09:22:56.601Z,22.83
2022-10-30T09:25:25.160Z,19.97
2022-10-30T09:27:53.735Z,21.90
2022-10-30T09:30:22.592Z,15.37
2022-10-30T09:32:57.930Z,17.97
2022-10-30T09:35:27.373Z,19.33
2022-10-30T09:37:56.668Z,19.23
2022-10-30T09:40:34.336Z,19.33
2022-10-30T09:43:10.237Z,17.43
2022-10-30T09:46:12.759Z,19.90
2022-10-30T09:48:56.419Z,19.53
2022-10-30T09:51:44.780Z,21.93
2022-10-30T09:54:22.189Z,21.90
2022-10-30T09:57:01.063Z,16.00
2022-10-30T09:59:44.075Z,19.00
2022-10-30T10:02:31.879Z,18.77
2022-10-30T10:05:10.318Z,20.17
2022-10-30T10:07:48.849Z,19.17
2022-10-30T10:10:23.536Z,19.17
2022-10-30T10:13:01.039Z,21.70
2022-10-30T10:15:41.992Z,18.00
2022-10-30T10:18:18.049Z,16.80
2022-10-30T10:20:52.529Z,17.60
2022-10-30T10:23:27.727Z,17.10
2022-10-30T10:25:57.276Z,19.57
2022-10-30T10:28:50.090Z,18.17
2022-10-30T10:31:30.989Z,16.90
2022-10-30T10:34:17.907Z,19.33
2022-10-30T10:36:55.483Z,16.47
2022-10-30T10:39:41.736Z,17.30
2022-10-30T10:42:25.895Z,14.80
2022-10-30T10:45:13.904Z,14.40
2022-10-30T10:48:07.237Z,18.27
2022-10-30T10:50:41.537Z,12.83
2022-10-30T10:53:19.838Z,13.50
2022-10-30T10:55:53.002Z,10.90
2022-10-30T10:58:28.411Z,13.43
2022-10-30T11:00:58.933Z,11.83
2022-10-30T11:03:34.248Z,12.77
2022-10-30T11:06:14.291Z,19.07
2022-10-30T11:08:44.737Z,15.50
2022-10-30T11:11:13.017Z,15.73
2022-10-30T11:13:43.174Z,10.70
2022-10-30T11:16:22.724Z,15.97
2022-10-30T11:18:55.649Z,14.60
2022-10-30T11:21:25.728Z,10.20
2022-10-30T11:23:56.467Z,13.20
2022-10-30T11:26:30.896Z,8.03
2022-10-30T11:29:03.318Z,10.13
2022-10-30T11:31:38.310Z,9.50
2022-10-30T11:34:34.003Z,10.37
2022-10-30T11:37:02.642Z,7.67
2022-10-30T11:39:34.296Z,9.63
2022-10-30T11:42:06.977Z,9.30
2022-10-30T11:44:41.943Z,8.47
2022-10-30T11:47:12.542Z,13.27
2022-10-30T11:49:47.683Z,10.57
2022-10-30T11:52:19.331Z,7.23
2022-10-30T11:54:53.748Z,12.10
2022-10-30T11:57:33.297Z,7.40
2022-10-30T12:00:05.202Z,9.97
2022-10-30T12:02:43.380Z,7.70
2022-10-30T12:05:34.486Z,8.17
2022-10-30T12:08:30.570Z,4.17
2022-10-30T12:11:02.694Z,6.07
2022-10-30T12:13:38.029Z,10.00
2022-10-30T12:16:23.777Z,6.53
2022-10-30T12:19:02.895Z,6.53
2022-10-30T12:21:33.118Z,4.23
2022-10-30T12:24:07.078Z,7.93
2022-10-30T12:26:40.723Z,7.20
2022-10-30T12:29:16.759Z,10.07
2022-10-30T12:31:52.736Z,9.60
2022-10-30T12:34:40.321Z,5.87
2022-10-30T12:37:17.072Z,6.00
2022-10-30T12:39:54.430Z,8.27
2022-10-30T12:42:25.582Z,5.37
2022-10-30T12:45:02.876Z,7.83
2022-10-30T12:47:40.713Z,8.10
2022-10-30T12:50:20.534Z,7.97
2022-10-30T12:52:55.094Z,10.10
2022-10-30T12:55:28.085Z,7.10
2022-10-30T12:58:05.245Z,6.43
2022-10-30T13:00:41.990Z,5.70
2022-10-30T13:03:25.258Z,5.83
2022-10-30T13:05:57.715Z,6.13
2022-10-30T13:08:32.161Z,9.07
2022-10-30T13:11:05.589Z,6.53
2022-10-30T13:13:38.339Z,7.00
2022-10-30T13:16:14.617Z,6.63
2022-10-30T13:18:42.888Z,7.40
2022-10-30T13:21:24.080Z,5.33
2022-10-30T13:23:55.988Z,6.17
2022-10-30T13:26:40.865Z,5.53
2022-10-30T13:29:21.826Z,5.60
2022-10-30T13:31:59.034Z,8.40
2022-10-30T13:34:45.608Z,4.70
2022-10-30T13:37:21.464Z,4.73
2022-10-30T13:40:06.819Z,3.67
2022-10-30T13:42:48.290Z,3.53
2022-10-30T13:45:45.999Z,4.63
2022-10-30T13:48:25.644Z,8.13
2022-10-30T13:51:14.617Z,6.40
2022-10-30T13:53:46.875Z,5.50
2022-10-30T13:56:18.794Z,10.13
2022-10-30T13:58:50.721Z,9.20
2022-10-30T14:01:26.110Z,13.23
2022-10-30T14:04:04.743Z,4.87
2022-10-30T14:06:42.253Z,4.90
2022-10-30T14:09:17.656Z,6.50
2022-10-30T14:11:46.684Z,6.53
2022-10-30T14:14:30.863Z,7.00
2022-10-30T14:17:18.877Z,4.93
2022-10-30T14:20:28.236Z,3.27
2022-10-30T14:23:19.848Z,4.23
2022-10-30T14:26:15.552Z,5.20
2022-10-30T14:28:45.981Z,6.37
2022-10-30T14:31:19.414Z,7.77
2022-10-30T14:33:51.632Z,4.77
2022-10-30T14:36:23.269Z,6.20
2022-10-30T14:39:01.992Z,5.23
2022-10-30T14:41:50.315Z,7.93
2022-10-30T14:45:02.830Z,6.07
2022-10-30T14:47:59.947Z,3.90
2022-10-30T14:50:58.083Z,7.03
2022-10-30T14:53:41.975Z,4.33
2022-10-30T14:56:20.659Z,5.70
2022-10-30T14:59:21.316Z,5.13
2022-10-30T15:02:10.517Z,8.07
2022-10-30T15:04:55.172Z,8.80
2022-10-30T15:07:34.315Z,5.20
2022-10-30T15:10:13.658Z,6.37
2022-10-30T15:13:08.642Z,5.30
2022-10-30T15:15:37.519Z,6.90
2022-10-30T15:18:11.811Z,7.30
2022-10-30T15:20:41.521Z,6.07
2022-10-30T15:23:26.530Z,4.87
2022-10-30T15:25:56.769Z,8.90
2022-10-30T15:28:28.980Z,6.37
2022-10-30T15:31:02.052Z,4.90
2022-10-30T15:33:31.757Z,5.53
2022-10-30T15:36:00.293Z,5.77
2022-10-30T15:38:30.460Z,4.50
2022-10-30T15:41:00.977Z,6.10
2022-10-30T15:43:34.392Z,6.23
2022-10-30T15:46:03.247Z,5.70
2022-10-30T15:48:34.702Z,7.40
2022-10-30T15:51:05.772Z,6.67
2022-10-30T15:53:42.246Z,9.93
2022-10-30T15:56:20.108Z,7.10
2022-10-30T15:58:51.943Z,7.73
2022-10-30T16:01:28.321Z,10.80
2022-10-30T16:03:57.085Z,9.10
2022-10-30T16:06:27.193Z,11.33
2022-10-30T16:08:57.000Z,7.27
2022-10-30T16:11:26.831Z,6.03
2022-10-30T16:13:55.344Z,6.57
2022-10-30T16:16:28.643Z,10.27
2022-10-30T16:19:01.506Z,7.13
2022-10-30T16:21:31.356Z,10.53
2022-10-30T16:24:03.195Z,7.00
2022-10-30T16:26:33.990Z,8.53
2022-10-30T16:29:09.031Z,8.70
2022-10-30T16:31:38.632Z,7.40
2022-10-30T16:34:13.666Z,11.07
2022-10-30T16:36:43.657Z,13.43
2022-10-30T16:39:17.123Z,7.27
2022-10-30T16:41:46.593Z,11.13
2022-10-30T16:44:27.923Z,5.87
2022-10-30T16:46:58.896Z,10.97
2022-10-30T16:49:32.852Z,9.47
2022-10-30T16:52:05.530Z,6.77
2022-10-30T16:54:39.375Z,7.10
2022-10-30T16:57:17.120Z,7.07
2022-10-30T16:59:49.542Z,8.23
2022-10-30T17:02:21.966Z,8.43
2022-10-30T17:04:55.526Z,6.57
2022-10-30T17:07:28.230Z,10.97
2022-10-30T17:09:59.673Z,6.47
2022-10-30T17:12:30.331Z,6.93
2022-10-30T17:15:13.371Z,9.53
2022-10-30T17:17:45.300Z,8.97
2022-10-30T17:20:30.821Z,5.90
2022-10-30T17:23:08.945Z,7.23
2022-10-30T17:25:42.952Z,6.67
2022-10-30T17:28:27.441Z,8.83
2022-10-30T17:30:56.865Z,9.80
2022-10-30T17:33:36.502Z,7.50
2022-10-30T17:36:06.319Z,10.93
2022-10-30T17:38:35.476Z,8.30
2022-10-30T17:41:06.547Z,11.90
2022-10-30T17:43:48.454Z,12.63
2022-10-30T17:46:20.338Z,17.67
2022-10-30T17:48:49.855Z,16.23
2022-10-30T17:51:19.289Z,17.27
2022-10-30T17:53:49.404Z,13.03
2022-10-30T17:56:23.255Z,15.20
2022-10-30T17:58:51.546Z,12.77
2022-10-30T18:01:22.688Z,18.47
2022-10-30T18:03:51.582Z,13.33
2022-10-30T18:06:22.176Z,16.83
2022-10-30T18:08:51.198Z,18.37
2022-10-30T18:11:24.877Z,21.87
2022-10-30T18:13:54.621Z,16.93
2022-10-30T18:16:22.944Z,22.70
2022-10-30T18:18:52.110Z,17.10
2022-10-30T18:21:22.064Z,20.17
2022-10-30T18:23:52.775Z,20.03
2022-10-30T18:26:25.337Z,22.23
2022-10-30T18:28:54.561Z,24.90
2022-10-30T18:31:25.181Z,22.10
2022-10-30T18:34:05.615Z,24.37
2022-10-30T18:36:34.095Z,20.43
2022-10-30T18:39:02.578Z,26.60
2022-10-30T18:41:34.831Z,25.30
2022-10-30T18:44:03.482Z,29.03
2022-10-30T18:46:33.041Z,26.97
2022-10-30T18:49:01.928Z,28.87
2022-10-30T18:51:30.658Z,28.70
2022-10-30T18:53:59.095Z,27.30
2022-10-30T18:56:29.330Z,23.27
2022-10-30T18:59:02.550Z,32.20
2022-10-30T19:01:32.935Z,28.27
2022-10-30T19:04:04.191Z,26.40
2022-10-30T19:06:34.676Z,29.40
2022-10-30T19:09:03.491Z,27.40
2022-10-30T19:11:32.344Z,25.73
2022-10-30T19:14:02.262Z,25.80
2022-10-30T19:16:32.259Z,23.57
2022-10-30T19:19:00.872Z,22.70
2022-10-30T19:21:32.439Z,27.07
2022-10-30T19:24:04.035Z,27.83
2022-10-30T19:26:32.333Z,25.50
2022-10-30T19:29:02.448Z,23.40
2022-10-30T19:31:31.263Z,31.50
2022-10-30T19:33:59.553Z,29.83
2022-10-30T19:36:30.936Z,29.20
2022-10-30T19:39:04.248Z,21.03
2022-10-30T19:41:44.636Z,21.60
2022-10-30T19:44:14.833Z,25.10
2022-10-30T19:46:43.088Z,21.83
2022-10-30T19:49:18.451Z,21.17
2022-10-30T19:51:47.127Z,25.63
2022-10-30T19:54:15.812Z,20.63
2022-10-30T19:56:44.669Z,23.53
2022-10-30T19:59:16.480Z,21.07
2022-10-30T20:01:45.316Z,20.47
2022-10-30T20:04:14.533Z,19.07
2022-10-30T20:06:43.019Z,22.60
2022-10-30T20:09:14.582Z,18.83
2022-10-30T20:11:42.918Z,21.80
2022-10-30T20:14:11.263Z,17.20
2022-10-30T20:16:40.890Z,20.13
2022-10-30T20:19:27.725Z,18.27
2022-10-30T20:21:56.249Z,19.03
2022-10-30T20:24:25.005Z,21.47
2022-10-30T20:26:58.560Z,18.20
2022-10-30T20:29:26.758Z,18.83
2022-10-30T20:31:56.500Z,19.30
2022-10-30T20:34:25.291Z,20.13
2022-10-30T20:36:53.416Z,20.83
2022-10-30T20:39:21.514Z,18.77
2022-10-30T20:41:49.970Z,18.97
2022-10-30T20:44:21.100Z,19.40
2022-10-30T20:46:49.194Z,20.03
2022-10-30T20:49:18.909Z,19.33
2022-10-30T20:51:47.943Z,19.93
2022-10-30T20:54:16.514Z,19.27
2022-10-30T20:56:44.698Z,18.23
2022-10-30T20:59:12.984Z,22.27
2022-10-30T21:01:41.811Z,19.50
2022-10-30T21:04:11.245Z,21.20
2022-10-30T21:06:41.777Z,23.97
2022-10-30T21:09:10.620Z,21.50
2022-10-30T21:11:39.043Z,25.97
2022-10-30T21:14:07.532Z,24.60
2022-10-30T21:16:35.633Z,24.77
2022-10-30T21:19:03.784Z,22.53
2022-10-30T21:21:32.006Z,26.50
2022-10-30T21:24:01.763Z,23.83
2022-10-30T21:26:30.136Z,29.47
2022-10-30T21:28:58.552Z,26.80
2022-10-30T21:31:26.829Z,29.17
2022-10-30T21:33:54.942Z,29.83
2022-10-30T21:36:23.986Z,29.77
2022-10-30T21:38:52.233Z,28.60
2022-10-30T21:41:25.069Z,28.73
2022-10-30T21:43:54.987Z,28.97
2022-10-30T21:46:24.904Z,30.87
2022-10-30T21:48:54.053Z,31.83
2022-10-30T21:51:25.015Z,32.37
2022-10-30T21:53:53.665Z,37.27
2022-10-30T21:56:25.759Z,32.83
2022-10-30T21:58:55.810Z,35.13
2022-10-30T22:01:26.834Z,39.63
2022-10-30T22:03:55.384Z,37.90
2022-10-30T22:06:24.220Z,35.50
2022-10-30T22:08:54.912Z,38.20
2022-10-30T22:11:27.189Z,38.23
2022-10-30T22:13:56.321Z,42.20
2022-10-30T22:16:25.561Z,41.63
2022-10-30T22:18:54.038Z,48.17
2022-10-30T22:21:22.598Z,45.07
2022-10-30T22:23:50.798Z,46.60
2022-10-30T22:26:20.941Z,46.03
2022-10-30T22:28:53.618Z,52.20
2022-10-30T22:31:23.041Z,47.97
2022-10-30T22:33:51.731Z,48.27
2022-10-30T22:36:22.071Z,47.33
2022-10-30T22:38:55.677Z,51.37
2022-10-30T22:41:25.345Z,49.97
2022-10-30T22:43:56.371Z,47.90
2022-10-30T22:46:26.819Z,47.67
2022-10-30T22:48:55.142Z,48.57
2022-10-30T22:51:23.802Z,52.07
2022-10-30T22:53:57.602Z,47.87
2022-10-30T22:56:27.899Z,53.43
2022-10-30T22:58:58.178Z,53.53
2022-10-30T23:01:29.119Z,51.23
2022-10-30T23:03:59.065Z,49.20
2022-10-30T23:06:28.537Z,50.27
2022-10-30T23:08:59.097Z,51.00
2022-10-30T23:11:28.361Z,54.97
2022-10-30T23:13:58.294Z,53.80
2022-10-30T23:16:27.976Z,52.83
2022-10-30T23:18:57.614Z,50.00
2022-10-30T23:21:27.587Z,50.70
2022-10-30T23:23:56.907Z,53.20
2022-10-30T23:26:26.738Z,53.57
2022-10-30T23:28:56.261Z,59.50
2022-10-30T23:31:27.787Z,58.10
2022-10-30T23:33:57.845Z,51.97
2022-10-30T23:36:26.697Z,53.03
2022-10-30T23:38:55.925Z,51.20
2022-10-30T23:41:25.897Z,55.70
2022-10-30T23:43:55.331Z,51.83
2022-10-30T23:46:23.740Z,52.47
2022-10-30T23:48:53.814Z,49.67
2022-10-30T23:51:22.883Z,54.20
2022-10-30T23:53:51.896Z,49.67
2022-10-30T23:56:20.662Z,51.80
2022-10-30T23:58:50.814Z,47.27
